sensor_id;sensor_type;location;lat;lon;timestamp;temperature;humidity
19248;DHT22;9758;48.640;8.148;2023-04-03T10:36:06;11.20;52.30
19248;DHT22;9758;48.640;8.148;2023-04-03T10:38:43;11.30;52.30
19248;DHT22;9758;48.640;8.148;2023-04-03T10:41:17;11.40;52.50
19248;DHT22;9758;48.640;8.148;2023-04-03T10:43:56;11.40;52.30
19248;DHT22;9758;48.640;8.148;2023-04-03T10:46:28;11.40;51.50
19248;DHT22;9758;48.640;8.148;2023-04-03T10:49:10;11.30;51.70
19248;DHT22;9758;48.640;8.148;2023-04-03T10:52:11;11.40;52.40
19248;DHT22;9758;48.640;8.148;2023-04-03T10:54:43;11.50;52.30
19248;DHT22;9758;48.640;8.148;2023-04-03T10:57:13;11.50;52.10
19248;DHT22;9758;48.640;8.148;2023-04-03T10:59:43;11.60;51.70
19248;DHT22;9758;48.640;8.148;2023-04-03T11:02:17;11.70;52.10
19248;DHT22;9758;48.640;8.148;2023-04-03T11:04:48;11.80;51.80
19248;DHT22;9758;48.640;8.148;2023-04-03T11:07:20;11.70;50.70
19248;DHT22;9758;48.640;8.148;2023-04-03T11:09:51;11.70;51.60
19248;DHT22;9758;48.640;8.148;2023-04-03T11:12:23;11.50;50.60
19248;DHT22;9758;48.640;8.148;2023-04-03T11:14:52;11.50;51.80
19248;DHT22;9758;48.640;8.148;2023-04-03T11:17:27;11.40;50.80
19248;DHT22;9758;48.640;8.148;2023-04-03T11:20:01;11.30;51.90
19248;DHT22;9758;48.640;8.148;2023-04-03T11:22:35;11.30;52.00
19248;DHT22;9758;48.640;8.148;2023-04-03T11:25:08;11.40;51.80
19248;DHT22;9758;48.640;8.148;2023-04-03T11:27:48;11.50;51.90
19248;DHT22;9758;48.640;8.148;2023-04-03T11:30:21;11.60;51.60
19248;DHT22;9758;48.640;8.148;2023-04-03T11:33:21;11.70;52.00
19248;DHT22;9758;48.640;8.148;2023-04-03T11:35:52;11.80;51.70
19248;DHT22;9758;48.640;8.148;2023-04-03T11:38:26;11.90;51.10
19248;DHT22;9758;48.640;8.148;2023-04-03T11:40:55;11.90;51.00
19248;DHT22;9758;48.640;8.148;2023-04-03T11:43:25;11.80;50.50
19248;DHT22;9758;48.640;8.148;2023-04-03T11:45:55;11.70;50.90
19248;DHT22;9758;48.640;8.148;2023-04-03T11:48:51;11.70;51.40
19248;DHT22;9758;48.640;8.148;2023-04-03T11:51:51;11.70;51.20
19248;DHT22;9758;48.640;8.148;2023-04-03T11:57:46;11.70;50.70
19248;DHT22;9758;48.640;8.148;2023-04-03T12:00:49;11.60;51.20
19248;DHT22;9758;48.640;8.148;2023-04-03T12:10:01;12.00;51.50
19248;DHT22;9758;48.640;8.148;2023-04-03T12:12:41;12.20;51.30
19248;DHT22;9758;48.640;8.148;2023-04-03T12:21:20;12.20;48.80
19248;DHT22;9758;48.640;8.148;2023-04-03T12:24:04;12.00;49.70
19248;DHT22;9758;48.640;8.148;2023-04-03T12:26:36;11.90;49.30
19248;DHT22;9758;48.640;8.148;2023-04-03T12:29:14;11.70;50.70
19248;DHT22;9758;48.640;8.148;2023-04-03T12:31:50;11.70;51.00
19248;DHT22;9758;48.640;8.148;2023-04-03T12:34:36;11.70;51.00
19248;DHT22;9758;48.640;8.148;2023-04-03T12:37:20;11.80;50.30
19248;DHT22;9758;48.640;8.148;2023-04-03T12:39:58;11.70;48.10
19248;DHT22;9758;48.640;8.148;2023-04-03T12:42:55;11.40;49.80
19248;DHT22;9758;48.640;8.148;2023-04-03T12:45:26;11.40;50.80
19248;DHT22;9758;48.640;8.148;2023-04-03T12:47:56;11.50;50.40
19248;DHT22;9758;48.640;8.148;2023-04-03T12:50:24;11.60;50.70
19248;DHT22;9758;48.640;8.148;2023-04-03T12:52:58;11.60;50.70
19248;DHT22;9758;48.640;8.148;2023-04-03T12:55:28;11.70;50.90
19248;DHT22;9758;48.640;8.148;2023-04-03T12:57:55;11.80;50.50
19248;DHT22;9758;48.640;8.148;2023-04-03T13:00:30;11.80;49.90
19248;DHT22;9758;48.640;8.148;2023-04-03T13:02:58;11.80;50.50
19248;DHT22;9758;48.640;8.148;2023-04-03T13:05:25;11.80;50.00
19248;DHT22;9758;48.640;8.148;2023-04-03T13:07:57;11.80;50.30
19248;DHT22;9758;48.640;8.148;2023-04-03T13:10:25;11.70;50.50
19248;DHT22;9758;48.640;8.148;2023-04-03T13:12:54;11.80;50.40
19248;DHT22;9758;48.640;8.148;2023-04-03T13:15:41;11.80;50.60
19248;DHT22;9758;48.640;8.148;2023-04-03T13:18:25;11.80;50.60
19248;DHT22;9758;48.640;8.148;2023-04-03T13:20:54;11.80;50.50
19248;DHT22;9758;48.640;8.148;2023-04-03T13:23:57;11.90;50.10
19248;DHT22;9758;48.640;8.148;2023-04-03T13:26:27;11.80;49.70
19248;DHT22;9758;48.640;8.148;2023-04-03T13:29:02;11.70;50.00
19248;DHT22;9758;48.640;8.148;2023-04-03T13:31:30;11.70;50.40
19248;DHT22;9758;48.640;8.148;2023-04-03T13:34:02;11.60;50.20
19248;DHT22;9758;48.640;8.148;2023-04-03T13:36:34;11.60;49.80
19248;DHT22;9758;48.640;8.148;2023-04-03T13:39:07;11.60;50.50
19248;DHT22;9758;48.640;8.148;2023-04-03T13:41:49;11.60;50.60
19248;DHT22;9758;48.640;8.148;2023-04-03T13:44:28;11.70;50.60
19248;DHT22;9758;48.640;8.148;2023-04-03T13:46:57;11.70;50.50
19248;DHT22;9758;48.640;8.148;2023-04-03T13:49:31;11.70;50.40
19248;DHT22;9758;48.640;8.148;2023-04-03T13:51:58;11.80;50.50
19248;DHT22;9758;48.640;8.148;2023-04-03T13:54:31;11.80;50.30
19248;DHT22;9758;48.640;8.148;2023-04-03T13:57:00;11.90;50.10
19248;DHT22;9758;48.640;8.148;2023-04-03T13:59:29;11.80;50.00
19248;DHT22;9758;48.640;8.148;2023-04-03T14:02:14;11.80;50.20
19248;DHT22;9758;48.640;8.148;2023-04-03T14:04:49;11.80;50.10
19248;DHT22;9758;48.640;8.148;2023-04-03T14:07:18;11.80;50.30
19248;DHT22;9758;48.640;8.148;2023-04-03T14:09:48;11.90;50.00
19248;DHT22;9758;48.640;8.148;2023-04-03T14:12:18;11.80;50.00
19248;DHT22;9758;48.640;8.148;2023-04-03T14:14:47;11.80;50.20
19248;DHT22;9758;48.640;8.148;2023-04-03T14:17:17;11.70;49.90
19248;DHT22;9758;48.640;8.148;2023-04-03T14:19:44;11.60;50.00
19248;DHT22;9758;48.640;8.148;2023-04-03T14:22:22;11.50;49.60
19248;DHT22;9758;48.640;8.148;2023-04-03T14:25:01;11.50;50.00
19248;DHT22;9758;48.640;8.148;2023-04-03T14:27:33;11.40;50.30
19248;DHT22;9758;48.640;8.148;2023-04-03T14:30:01;11.40;50.20
19248;DHT22;9758;48.640;8.148;2023-04-03T14:32:28;11.40;50.40
19248;DHT22;9758;48.640;8.148;2023-04-03T14:34:56;11.40;49.90
19248;DHT22;9758;48.640;8.148;2023-04-03T14:37:26;11.30;49.80
19248;DHT22;9758;48.640;8.148;2023-04-03T14:39:57;11.20;49.90
19248;DHT22;9758;48.640;8.148;2023-04-03T14:42:27;11.20;50.30
19248;DHT22;9758;48.640;8.148;2023-04-03T14:44:55;11.20;49.50
19248;DHT22;9758;48.640;8.148;2023-04-03T14:47:23;11.10;50.10
19248;DHT22;9758;48.640;8.148;2023-04-03T14:49:53;11.20;50.10
19248;DHT22;9758;48.640;8.148;2023-04-03T14:52:22;11.20;50.40
19248;DHT22;9758;48.640;8.148;2023-04-03T14:54:50;11.20;50.30
19248;DHT22;9758;48.640;8.148;2023-04-03T14:57:17;11.30;50.20
19248;DHT22;9758;48.640;8.148;2023-04-03T14:59:46;11.30;48.90
19248;DHT22;9758;48.640;8.148;2023-04-03T15:02:27;11.30;50.50
19248;DHT22;9758;48.640;8.148;2023-04-03T15:04:55;11.30;50.10
19248;DHT22;9758;48.640;8.148;2023-04-03T15:07:24;11.40;50.20
19248;DHT22;9758;48.640;8.148;2023-04-03T15:09:52;11.40;50.10
19248;DHT22;9758;48.640;8.148;2023-04-03T15:12:19;11.40;50.00
19248;DHT22;9758;48.640;8.148;2023-04-03T15:14:47;11.50;50.00
19248;DHT22;9758;48.640;8.148;2023-04-03T15:17:25;11.50;49.90
19248;DHT22;9758;48.640;8.148;2023-04-03T15:19:52;11.50;49.70
19248;DHT22;9758;48.640;8.148;2023-04-03T15:22:19;11.30;48.00
19248;DHT22;9758;48.640;8.148;2023-04-03T15:24:46;11.20;49.30
19248;DHT22;9758;48.640;8.148;2023-04-03T15:27:13;11.10;48.70
19248;DHT22;9758;48.640;8.148;2023-04-03T15:29:43;10.90;47.20
19248;DHT22;9758;48.640;8.148;2023-04-03T15:32:12;10.80;49.40
19248;DHT22;9758;48.640;8.148;2023-04-03T15:34:40;10.70;49.40
19248;DHT22;9758;48.640;8.148;2023-04-03T15:37:06;10.70;49.50
19248;DHT22;9758;48.640;8.148;2023-04-03T15:39:33;10.70;49.80
19248;DHT22;9758;48.640;8.148;2023-04-03T15:42:00;10.70;50.00
19248;DHT22;9758;48.640;8.148;2023-04-03T15:44:31;10.80;49.60
19248;DHT22;9758;48.640;8.148;2023-04-03T15:46:59;10.90;49.50
19248;DHT22;9758;48.640;8.148;2023-04-03T15:49:42;10.90;49.80
19248;DHT22;9758;48.640;8.148;2023-04-03T15:52:08;11.10;49.10
19248;DHT22;9758;48.640;8.148;2023-04-03T15:59:46;11.50;50.70
19248;DHT22;9758;48.640;8.148;2023-04-03T16:02:13;12.10;51.00
19248;DHT22;9758;48.640;8.148;2023-04-03T16:04:43;12.60;50.00
19248;DHT22;9758;48.640;8.148;2023-04-03T16:07:12;12.80;49.80
19248;DHT22;9758;48.640;8.148;2023-04-03T16:09:39;12.90;49.40
19248;DHT22;9758;48.640;8.148;2023-04-03T16:12:07;12.90;48.80
19248;DHT22;9758;48.640;8.148;2023-04-03T16:15:05;12.80;48.40
19248;DHT22;9758;48.640;8.148;2023-04-03T16:17:40;12.60;48.50
19248;DHT22;9758;48.640;8.148;2023-04-03T16:20:11;12.50;48.80
19248;DHT22;9758;48.640;8.148;2023-04-03T16:22:58;12.40;48.90
19248;DHT22;9758;48.640;8.148;2023-04-03T16:25:26;12.40;49.00
19248;DHT22;9758;48.640;8.148;2023-04-03T16:27:53;12.50;48.90
19248;DHT22;9758;48.640;8.148;2023-04-03T16:30:20;12.50;48.60
19248;DHT22;9758;48.640;8.148;2023-04-03T16:32:48;12.40;48.60
19248;DHT22;9758;48.640;8.148;2023-04-03T16:35:17;12.40;48.80
19248;DHT22;9758;48.640;8.148;2023-04-03T16:37:44;12.30;48.70
19248;DHT22;9758;48.640;8.148;2023-04-03T16:40:11;12.30;48.40
19248;DHT22;9758;48.640;8.148;2023-04-03T16:42:39;12.20;48.50
19248;DHT22;9758;48.640;8.148;2023-04-03T16:45:07;12.00;48.20
19248;DHT22;9758;48.640;8.148;2023-04-03T16:47:37;11.90;48.50
